Terminal Aerodrome Forecast
Issued by NWS

Home | Current Version | Previous Version | Text Only | Print | Product List | Glossary On
Versions: 1 2 3 4 5 6 7 8 9 10 11 12 13 14 15 16 17
582
FTUS41 KCAR 192320
TAFPQI
TAF
KPQI 192320Z 2000/2024 18012G22KT P6SM BKN120
      TEMPO 2000/2002 -SHRA BKN050
     FM200200 24008KT P6SM BKN050
     FM200700 26007KT P6SM SCT250
     FM201400 30015G23KT P6SM FEW050 SCT250=

USA.gov is the U.S. government's official web portal to all federal, state and local government web resources and services.